sensor_id;sensor_type;location;lat;lon;timestamp;pressure;altitude;pressure_sealevel;temperature;humidity
61086;BME280;46967;48.876;2.136;2023-12-22T00:01:53;101284.81;;;33.87;17.48
61086;BME280;46967;48.876;2.136;2023-12-22T00:04:18;101283.78;;;33.58;17.66
61086;BME280;46967;48.876;2.136;2023-12-22T00:06:43;101291.56;;;33.00;18.07
61086;BME280;46967;48.876;2.136;2023-12-22T00:09:09;101299.00;;;32.75;18.28
61086;BME280;46967;48.876;2.136;2023-12-22T00:11:34;101289.06;;;33.37;17.58
61086;BME280;46967;48.876;2.136;2023-12-22T00:13:59;101281.59;;;32.71;18.08
61086;BME280;46967;48.876;2.136;2023-12-22T00:16:25;101275.88;;;32.74;18.24
61086;BME280;46967;48.876;2.136;2023-12-22T00:18:50;101266.75;;;32.98;17.43
61086;BME280;46967;48.876;2.136;2023-12-22T00:21:15;101250.47;;;32.54;17.97
61086;BME280;46967;48.876;2.136;2023-12-22T00:23:40;101266.94;;;34.81;16.15
61086;BME280;46967;48.876;2.136;2023-12-22T00:26:06;101273.91;;;34.10;16.62
61086;BME280;46967;48.876;2.136;2023-12-22T00:28:31;101268.69;;;34.45;16.34
61086;BME280;46967;48.876;2.136;2023-12-22T00:30:57;101271.72;;;35.35;15.52
61086;BME280;46967;48.876;2.136;2023-12-22T00:33:24;101266.94;;;34.81;15.95
61086;BME280;46967;48.876;2.136;2023-12-22T00:35:49;101259.47;;;34.55;16.00
61086;BME280;46967;48.876;2.136;2023-12-22T00:38:14;101254.41;;;34.95;15.73
61086;BME280;46967;48.876;2.136;2023-12-22T00:40:40;101266.09;;;36.34;14.65
61086;BME280;46967;48.876;2.136;2023-12-22T00:43:05;101273.16;;;35.31;15.34
61086;BME280;46967;48.876;2.136;2023-12-22T00:45:30;101265.63;;;35.62;15.01
61086;BME280;46967;48.876;2.136;2023-12-22T00:47:56;101269.41;;;33.66;16.68
61086;BME280;46967;48.876;2.136;2023-12-22T00:50:21;101261.44;;;34.46;15.91
61086;BME280;46967;48.876;2.136;2023-12-22T00:52:46;101259.59;;;35.60;15.12
61086;BME280;46967;48.876;2.136;2023-12-22T00:55:12;101272.56;;;35.78;14.94
61086;BME280;46967;48.876;2.136;2023-12-22T00:57:37;101269.44;;;36.29;14.46
61086;BME280;46967;48.876;2.136;2023-12-22T01:00:03;101257.81;;;35.38;15.33
61086;BME280;46967;48.876;2.136;2023-12-22T01:02:30;101256.31;;;35.64;15.12
61086;BME280;46967;48.876;2.136;2023-12-22T01:04:55;101244.50;;;36.47;14.37
61086;BME280;46967;48.876;2.136;2023-12-22T01:07:20;101256.34;;;36.33;14.60
61086;BME280;46967;48.876;2.136;2023-12-22T01:09:46;101256.28;;;36.19;14.65
61086;BME280;46967;48.876;2.136;2023-12-22T01:12:11;101261.66;;;36.13;14.80
61086;BME280;46967;48.876;2.136;2023-12-22T01:14:36;101287.03;;;35.28;15.77
61086;BME280;46967;48.876;2.136;2023-12-22T01:17:02;101309.38;;;33.99;17.22
61086;BME280;46967;48.876;2.136;2023-12-22T01:19:27;101290.84;;;33.30;17.85
61086;BME280;46967;48.876;2.136;2023-12-22T01:21:53;101298.72;;;35.42;16.00
61086;BME280;46967;48.876;2.136;2023-12-22T01:24:18;101296.31;;;34.54;16.95
61086;BME280;46967;48.876;2.136;2023-12-22T01:26:44;101292.00;;;35.03;16.65
61086;BME280;46967;48.876;2.136;2023-12-22T01:29:09;101285.94;;;34.94;17.21
61086;BME280;46967;48.876;2.136;2023-12-22T01:31:35;101289.25;;;35.95;15.86
61086;BME280;46967;48.876;2.136;2023-12-22T01:34:00;101283.19;;;35.92;16.07
61086;BME280;46967;48.876;2.136;2023-12-22T01:36:25;101282.72;;;35.34;16.93
61086;BME280;46967;48.876;2.136;2023-12-22T01:38:51;101285.22;;;35.35;16.83
61086;BME280;46967;48.876;2.136;2023-12-22T01:41:16;101291.59;;;36.18;16.00
61086;BME280;46967;48.876;2.136;2023-12-22T01:43:41;101287.75;;;35.15;16.99
61086;BME280;46967;48.876;2.136;2023-12-22T01:46:07;101280.81;;;35.28;17.07
61086;BME280;46967;48.876;2.136;2023-12-22T01:48:34;101260.34;;;34.83;17.33
61086;BME280;46967;48.876;2.136;2023-12-22T01:51:01;101279.59;;;35.37;16.94
61086;BME280;46967;48.876;2.136;2023-12-22T01:53:27;101272.63;;;35.91;16.46
61086;BME280;46967;48.876;2.136;2023-12-22T01:55:54;101275.41;;;35.69;16.77
61086;BME280;46967;48.876;2.136;2023-12-22T01:58:20;101289.06;;;36.03;16.22
61086;BME280;46967;48.876;2.136;2023-12-22T02:00:47;101294.69;;;36.15;16.18
61086;BME280;46967;48.876;2.136;2023-12-22T02:03:13;101289.59;;;34.87;17.21
61086;BME280;46967;48.876;2.136;2023-12-22T02:05:41;101296.06;;;35.49;16.65
61086;BME280;46967;48.876;2.136;2023-12-22T02:08:06;101303.28;;;35.42;16.63
61086;BME280;46967;48.876;2.136;2023-12-22T02:10:32;101294.38;;;35.48;16.63
61086;BME280;46967;48.876;2.136;2023-12-22T02:12:57;101304.41;;;34.33;17.73
61086;BME280;46967;48.876;2.136;2023-12-22T02:15:22;101310.06;;;35.03;17.01
61086;BME280;46967;48.876;2.136;2023-12-22T02:20:16;101298.56;;;35.85;16.24
61086;BME280;46967;48.876;2.136;2023-12-22T02:22:41;101311.38;;;34.27;17.56
61086;BME280;46967;48.876;2.136;2023-12-22T02:25:07;101317.03;;;34.54;17.41
61086;BME280;46967;48.876;2.136;2023-12-22T02:27:48;101316.53;;;32.40;19.23
61086;BME280;46967;48.876;2.136;2023-12-22T02:32:48;101316.19;;;33.80;17.97
61086;BME280;46967;48.876;2.136;2023-12-22T02:35:22;101321.09;;;33.47;18.59
61086;BME280;46967;48.876;2.136;2023-12-22T02:37:49;101319.25;;;34.87;17.10
61086;BME280;46967;48.876;2.136;2023-12-22T02:40:15;101319.41;;;35.35;16.69
61086;BME280;46967;48.876;2.136;2023-12-22T02:42:42;101312.13;;;35.29;16.50
61086;BME280;46967;48.876;2.136;2023-12-22T02:45:17;101316.22;;;34.75;17.08
61086;BME280;46967;48.876;2.136;2023-12-22T02:47:42;101312.59;;;35.11;16.63
61086;BME280;46967;48.876;2.136;2023-12-22T02:50:09;101297.19;;;35.05;16.63
61086;BME280;46967;48.876;2.136;2023-12-22T02:52:34;101312.53;;;34.76;16.86
61086;BME280;46967;48.876;2.136;2023-12-22T02:55:04;101306.88;;;34.99;16.67
61086;BME280;46967;48.876;2.136;2023-12-22T02:57:29;101302.88;;;33.34;18.19
61086;BME280;46967;48.876;2.136;2023-12-22T02:59:56;101302.28;;;34.71;16.75
61086;BME280;46967;48.876;2.136;2023-12-22T03:02:21;101289.06;;;34.98;16.34
61086;BME280;46967;48.876;2.136;2023-12-22T03:04:46;101291.63;;;34.84;16.69
61086;BME280;46967;48.876;2.136;2023-12-22T03:07:12;101291.56;;;34.99;16.37
61086;BME280;46967;48.876;2.136;2023-12-22T03:09:38;101286.47;;;35.40;16.09
61086;BME280;46967;48.876;2.136;2023-12-22T03:12:04;101297.75;;;35.22;16.41
61086;BME280;46967;48.876;2.136;2023-12-22T03:14:30;101288.75;;;34.43;17.13
61086;BME280;46967;48.876;2.136;2023-12-22T03:16:56;101298.22;;;35.04;16.55
61086;BME280;46967;48.876;2.136;2023-12-22T03:19:21;101295.09;;;35.63;15.96
61086;BME280;46967;48.876;2.136;2023-12-22T03:21:48;101293.94;;;34.08;17.39
61086;BME280;46967;48.876;2.136;2023-12-22T03:24:13;101290.63;;;33.46;18.33
61086;BME280;46967;48.876;2.136;2023-12-22T03:26:39;101292.28;;;33.17;18.46
61086;BME280;46967;48.876;2.136;2023-12-22T03:29:04;101300.81;;;34.47;17.36
61086;BME280;46967;48.876;2.136;2023-12-22T03:31:30;101299.75;;;33.75;17.88
61086;BME280;46967;48.876;2.136;2023-12-22T03:33:55;101306.63;;;35.79;16.03
61086;BME280;46967;48.876;2.136;2023-12-22T03:36:21;101302.09;;;35.23;16.57
61086;BME280;46967;48.876;2.136;2023-12-22T03:38:46;101291.66;;;36.38;15.45
61086;BME280;46967;48.876;2.136;2023-12-22T03:41:12;101288.88;;;34.99;16.80
61086;BME280;46967;48.876;2.136;2023-12-22T03:43:37;101295.56;;;34.60;17.10
61086;BME280;46967;48.876;2.136;2023-12-22T03:46:03;101295.09;;;33.54;18.23
61086;BME280;46967;48.876;2.136;2023-12-22T03:48:28;101293.50;;;34.84;17.04
61086;BME280;46967;48.876;2.136;2023-12-22T03:50:53;101289.78;;;35.77;16.42
61086;BME280;46967;48.876;2.136;2023-12-22T03:53:19;101292.38;;;36.05;15.89
61086;BME280;46967;48.876;2.136;2023-12-22T03:55:44;101287.69;;;36.34;15.74
61086;BME280;46967;48.876;2.136;2023-12-22T03:58:10;101289.19;;;35.81;16.34
61086;BME280;46967;48.876;2.136;2023-12-22T04:00:35;101293.97;;;35.79;16.59
61086;BME280;46967;48.876;2.136;2023-12-22T04:03:01;101307.94;;;35.96;16.18
61086;BME280;46967;48.876;2.136;2023-12-22T04:05:27;101300.38;;;35.78;16.92
61086;BME280;46967;48.876;2.136;2023-12-22T04:07:52;101309.75;;;36.51;16.31
61086;BME280;46967;48.876;2.136;2023-12-22T04:10:18;101308.72;;;35.48;17.26
61086;BME280;46967;48.876;2.136;2023-12-22T04:12:43;101312.34;;;35.06;18.17
61086;BME280;46967;48.876;2.136;2023-12-22T04:15:09;101321.47;;;36.03;17.34
61086;BME280;46967;48.876;2.136;2023-12-22T04:17:34;101315.66;;;36.13;17.34
61086;BME280;46967;48.876;2.136;2023-12-22T04:19:59;101319.44;;;36.18;17.36
61086;BME280;46967;48.876;2.136;2023-12-22T04:22:25;101321.44;;;35.96;17.59
61086;BME280;46967;48.876;2.136;2023-12-22T04:24:50;101310.47;;;35.28;18.31
61086;BME280;46967;48.876;2.136;2023-12-22T04:27:15;101319.97;;;36.69;17.12
61086;BME280;46967;48.876;2.136;2023-12-22T04:29:41;101319.63;;;35.68;18.12
61086;BME280;46967;48.876;2.136;2023-12-22T04:32:06;101304.59;;;36.69;17.03
61086;BME280;46967;48.876;2.136;2023-12-22T04:34:31;101303.09;;;34.87;19.10
61086;BME280;46967;48.876;2.136;2023-12-22T04:36:57;101299.50;;;35.71;17.90
61086;BME280;46967;48.876;2.136;2023-12-22T04:39:22;101296.97;;;36.11;17.35
61086;BME280;46967;48.876;2.136;2023-12-22T04:41:47;101312.88;;;36.34;17.29
61086;BME280;46967;48.876;2.136;2023-12-22T04:44:12;101310.19;;;35.51;17.92
61086;BME280;46967;48.876;2.136;2023-12-22T04:46:38;101310.16;;;36.28;17.26
61086;BME280;46967;48.876;2.136;2023-12-22T04:49:03;101305.50;;;36.15;17.38
61086;BME280;46967;48.876;2.136;2023-12-22T04:51:28;101299.69;;;35.69;17.65
61086;BME280;46967;48.876;2.136;2023-12-22T04:53:54;101299.34;;;35.44;17.90
61086;BME280;46967;48.876;2.136;2023-12-22T04:56:19;101293.91;;;35.72;17.35
61086;BME280;46967;48.876;2.136;2023-12-22T04:58:45;101301.44;;;36.45;16.66
61086;BME280;46967;48.876;2.136;2023-12-22T05:01:10;101292.69;;;35.75;17.55
61086;BME280;46967;48.876;2.136;2023-12-22T05:03:35;101297.22;;;36.23;17.43
61086;BME280;46967;48.876;2.136;2023-12-22T05:06:01;101308.56;;;35.98;18.15
61086;BME280;46967;48.876;2.136;2023-12-22T05:08:26;101307.16;;;36.09;17.68
61086;BME280;46967;48.876;2.136;2023-12-22T05:10:51;101308.97;;;34.17;19.34
61086;BME280;46967;48.876;2.136;2023-12-22T05:13:17;101313.91;;;35.22;18.29
61086;BME280;46967;48.876;2.136;2023-12-22T05:15:42;101311.88;;;35.59;18.12
61086;BME280;46967;48.876;2.136;2023-12-22T05:18:08;101298.75;;;36.45;17.12
61086;BME280;46967;48.876;2.136;2023-12-22T05:20:33;101294.72;;;35.31;18.21
61086;BME280;46967;48.876;2.136;2023-12-22T05:22:58;101293.38;;;35.20;18.41
61086;BME280;46967;48.876;2.136;2023-12-22T05:25:24;101299.28;;;34.81;18.94
61086;BME280;46967;48.876;2.136;2023-12-22T05:27:49;101305.06;;;34.78;18.76
61086;BME280;46967;48.876;2.136;2023-12-22T05:30:15;101300.78;;;34.83;18.60
61086;BME280;46967;48.876;2.136;2023-12-22T05:32:40;101291.06;;;36.36;17.02
61086;BME280;46967;48.876;2.136;2023-12-22T05:35:05;101296.84;;;35.43;18.15
61086;BME280;46967;48.876;2.136;2023-12-22T05:37:31;101291.47;;;36.33;17.40
61086;BME280;46967;48.876;2.136;2023-12-22T05:39:56;101287.59;;;36.00;17.27
61086;BME280;46967;48.876;2.136;2023-12-22T05:42:21;101302.06;;;35.44;18.06
61086;BME280;46967;48.876;2.136;2023-12-22T05:44:47;101293.53;;;36.37;17.25
61086;BME280;46967;48.876;2.136;2023-12-22T05:47:18;101295.44;;;35.88;18.12
61086;BME280;46967;48.876;2.136;2023-12-22T05:49:43;101303.69;;;36.35;17.39
61086;BME280;46967;48.876;2.136;2023-12-22T05:52:09;101282.13;;;33.72;19.98
61086;BME280;46967;48.876;2.136;2023-12-22T05:54:38;101292.34;;;35.91;17.93
61086;BME280;46967;48.876;2.136;2023-12-22T05:57:03;101288.06;;;36.17;17.61
61086;BME280;46967;48.876;2.136;2023-12-22T05:59:30;101290.94;;;35.61;18.30
61086;BME280;46967;48.876;2.136;2023-12-22T06:01:57;101291.59;;;35.69;18.07
61086;BME280;46967;48.876;2.136;2023-12-22T06:04:24;101285.75;;;36.07;17.71
61086;BME280;46967;48.876;2.136;2023-12-22T06:06:49;101290.38;;;35.72;18.08
61086;BME280;46967;48.876;2.136;2023-12-22T06:09:15;101280.06;;;36.71;17.18
61086;BME280;46967;48.876;2.136;2023-12-22T06:11:42;101294.50;;;35.26;18.55
61086;BME280;46967;48.876;2.136;2023-12-22T06:14:07;101283.97;;;35.80;17.98
61086;BME280;46967;48.876;2.136;2023-12-22T06:16:33;101286.75;;;36.82;17.07
61086;BME280;46967;48.876;2.136;2023-12-22T06:18:58;101287.69;;;35.72;17.84
61086;BME280;46967;48.876;2.136;2023-12-22T06:21:23;101289.16;;;35.11;18.99
61086;BME280;46967;48.876;2.136;2023-12-22T06:23:50;101295.38;;;35.40;18.42
61086;BME280;46967;48.876;2.136;2023-12-22T06:26:15;101303.53;;;35.82;18.05
61086;BME280;46967;48.876;2.136;2023-12-22T06:28:40;101311.22;;;35.50;18.10
61086;BME280;46967;48.876;2.136;2023-12-22T06:31:07;101310.19;;;35.92;17.89
61086;BME280;46967;48.876;2.136;2023-12-22T06:33:32;101298.78;;;36.66;17.14
61086;BME280;46967;48.876;2.136;2023-12-22T06:35:58;101307.69;;;36.46;17.53
61086;BME280;46967;48.876;2.136;2023-12-22T06:38:23;101298.56;;;37.14;16.72
61086;BME280;46967;48.876;2.136;2023-12-22T06:40:48;101302.38;;;36.18;17.52
61086;BME280;46967;48.876;2.136;2023-12-22T06:43:14;101296.94;;;35.98;17.79
61086;BME280;46967;48.876;2.136;2023-12-22T06:45:40;101292.13;;;36.75;17.09
61086;BME280;46967;48.876;2.136;2023-12-22T06:48:06;101291.69;;;37.31;16.72
61086;BME280;46967;48.876;2.136;2023-12-22T06:50:31;101296.50;;;36.76;17.11
61086;BME280;46967;48.876;2.136;2023-12-22T06:52:57;101297.84;;;36.18;17.59
61086;BME280;46967;48.876;2.136;2023-12-22T06:55:23;101294.56;;;36.30;17.56
61086;BME280;46967;48.876;2.136;2023-12-22T06:57:48;101291.25;;;36.41;17.42
61086;BME280;46967;48.876;2.136;2023-12-22T07:00:14;101289.63;;;36.60;17.26
61086;BME280;46967;48.876;2.136;2023-12-22T07:02:39;101280.91;;;36.98;16.83
61086;BME280;46967;48.876;2.136;2023-12-22T07:07:50;101292.47;;;35.42;18.35
61086;BME280;46967;48.876;2.136;2023-12-22T07:10:18;101284.81;;;36.62;17.33
61086;BME280;46967;48.876;2.136;2023-12-22T07:12:43;101287.56;;;36.82;17.20
61086;BME280;46967;48.876;2.136;2023-12-22T07:15:08;101286.28;;;36.71;16.94
61086;BME280;46967;48.876;2.136;2023-12-22T07:17:34;101290.44;;;36.47;17.32
61086;BME280;46967;48.876;2.136;2023-12-22T07:19:59;101291.25;;;36.41;17.23
61086;BME280;46967;48.876;2.136;2023-12-22T07:22:28;101300.28;;;36.06;17.92
61086;BME280;46967;48.876;2.136;2023-12-22T07:24:53;101294.97;;;36.26;17.36
61086;BME280;46967;48.876;2.136;2023-12-22T07:27:20;101301.47;;;36.72;16.98
61086;BME280;46967;48.876;2.136;2023-12-22T07:29:45;101299.25;;;35.03;18.44
61086;BME280;46967;48.876;2.136;2023-12-22T07:32:11;101309.31;;;36.34;17.38
61086;BME280;46967;48.876;2.136;2023-12-22T07:34:37;101306.19;;;36.37;17.59
61086;BME280;46967;48.876;2.136;2023-12-22T07:37:03;101318.06;;;35.52;18.54
61086;BME280;46967;48.876;2.136;2023-12-22T07:39:29;101321.84;;;36.61;17.69
61086;BME280;46967;48.876;2.136;2023-12-22T07:41:55;101331.03;;;35.07;19.09
61086;BME280;46967;48.876;2.136;2023-12-22T07:44:20;101326.66;;;36.04;18.15
61086;BME280;46967;48.876;2.136;2023-12-22T07:46:56;101328.41;;;36.32;17.77
61086;BME280;46967;48.876;2.136;2023-12-22T07:49:21;101334.13;;;36.84;17.44
61086;BME280;46967;48.876;2.136;2023-12-22T07:51:46;101333.72;;;36.87;17.60
61086;BME280;46967;48.876;2.136;2023-12-22T07:54:12;101333.31;;;37.24;17.18
61086;BME280;46967;48.876;2.136;2023-12-22T07:56:37;101338.03;;;37.55;16.97
61086;BME280;46967;48.876;2.136;2023-12-22T07:59:02;101330.19;;;37.00;17.30
61086;BME280;46967;48.876;2.136;2023-12-22T08:01:28;101338.94;;;36.75;17.55
61086;BME280;46967;48.876;2.136;2023-12-22T08:03:53;101338.94;;;36.89;17.67
61086;BME280;46967;48.876;2.136;2023-12-22T08:06:18;101336.03;;;37.37;17.06
61086;BME280;46967;48.876;2.136;2023-12-22T08:08:44;101351.84;;;36.87;17.50
61086;BME280;46967;48.876;2.136;2023-12-22T08:11:09;101356.91;;;35.86;18.57
61086;BME280;46967;48.876;2.136;2023-12-22T08:13:34;101360.06;;;36.52;17.75
61086;BME280;46967;48.876;2.136;2023-12-22T08:16:00;101361.16;;;36.91;17.56
61086;BME280;46967;48.876;2.136;2023-12-22T08:18:25;101358.88;;;36.13;18.26
61086;BME280;46967;48.876;2.136;2023-12-22T08:20:51;101357.38;;;36.45;17.66
61086;BME280;46967;48.876;2.136;2023-12-22T08:23:16;101360.09;;;36.72;17.68
61086;BME280;46967;48.876;2.136;2023-12-22T08:25:41;101356.09;;;36.54;17.75
61086;BME280;46967;48.876;2.136;2023-12-22T08:28:07;101364.00;;;36.56;17.72
61086;BME280;46967;48.876;2.136;2023-12-22T08:30:32;101366.59;;;36.84;17.38
61086;BME280;46967;48.876;2.136;2023-12-22T08:32:58;101369.69;;;36.88;17.41
61086;BME280;46967;48.876;2.136;2023-12-22T08:35:24;101375.72;;;37.10;17.37
61086;BME280;46967;48.876;2.136;2023-12-22T08:37:49;101373.91;;;37.37;16.68
61086;BME280;46967;48.876;2.136;2023-12-22T08:40:14;101369.72;;;37.08;17.33
61086;BME280;46967;48.876;2.136;2023-12-22T08:42:40;101377.91;;;36.46;17.73
61086;BME280;46967;48.876;2.136;2023-12-22T08:45:06;101371.81;;;37.26;17.17
61086;BME280;46967;48.876;2.136;2023-12-22T08:47:31;101380.31;;;37.16;17.28
61086;BME280;46967;48.876;2.136;2023-12-22T08:49:56;101381.81;;;37.39;17.18
61086;BME280;46967;48.876;2.136;2023-12-22T08:52:22;101383.63;;;37.58;16.89
61086;BME280;46967;48.876;2.136;2023-12-22T08:54:47;101394.47;;;37.11;17.14
61086;BME280;46967;48.876;2.136;2023-12-22T08:57:12;101390.72;;;36.86;17.50
61086;BME280;46967;48.876;2.136;2023-12-22T08:59:38;101385.41;;;33.33;21.17
61086;BME280;46967;48.876;2.136;2023-12-22T09:02:03;101377.34;;;35.17;18.99
61086;BME280;46967;48.876;2.136;2023-12-22T09:04:29;101380.44;;;35.36;19.03
61086;BME280;46967;48.876;2.136;2023-12-22T09:06:54;101378.94;;;34.83;19.23
61086;BME280;46967;48.876;2.136;2023-12-22T09:09:19;101375.91;;;34.20;19.80
61086;BME280;46967;48.876;2.136;2023-12-22T09:11:46;101363.03;;;36.08;17.89
61086;BME280;46967;48.876;2.136;2023-12-22T09:14:12;101379.59;;;36.40;17.64
61086;BME280;46967;48.876;2.136;2023-12-22T09:16:37;101382.19;;;36.75;17.24
61086;BME280;46967;48.876;2.136;2023-12-22T09:19:03;101392.59;;;36.98;17.05
61086;BME280;46967;48.876;2.136;2023-12-22T09:21:29;101402.81;;;34.05;20.19
61086;BME280;46967;48.876;2.136;2023-12-22T09:23:55;101399.81;;;33.55;21.07
61086;BME280;46967;48.876;2.136;2023-12-22T09:26:20;101400.34;;;35.63;19.03
61086;BME280;46967;48.876;2.136;2023-12-22T09:28:46;101413.91;;;36.53;17.98
61086;BME280;46967;48.876;2.136;2023-12-22T09:31:11;101406.97;;;37.59;17.24
61086;BME280;46967;48.876;2.136;2023-12-22T09:33:42;101402.13;;;36.74;17.58
61086;BME280;46967;48.876;2.136;2023-12-22T09:36:09;101423.72;;;34.18;20.04
61086;BME280;46967;48.876;2.136;2023-12-22T09:38:34;101404.63;;;33.83;20.94
61086;BME280;46967;48.876;2.136;2023-12-22T09:41:01;101414.44;;;35.87;18.77
61086;BME280;46967;48.876;2.136;2023-12-22T09:43:26;101402.91;;;36.13;18.70
61086;BME280;46967;48.876;2.136;2023-12-22T09:45:53;101410.69;;;37.05;17.81
61086;BME280;46967;48.876;2.136;2023-12-22T09:48:20;101405.94;;;36.32;18.48
61086;BME280;46967;48.876;2.136;2023-12-22T09:50:52;101406.72;;;36.74;17.81
61086;BME280;46967;48.876;2.136;2023-12-22T09:53:19;101401.16;;;34.71;19.64
61086;BME280;46967;48.876;2.136;2023-12-22T09:55:45;101402.13;;;36.88;17.51
61086;BME280;46967;48.876;2.136;2023-12-22T09:58:13;101403.44;;;37.32;17.32
61086;BME280;46967;48.876;2.136;2023-12-22T10:00:40;101405.59;;;36.48;17.66
61086;BME280;46967;48.876;2.136;2023-12-22T10:03:06;101406.53;;;37.02;17.19
61086;BME280;46967;48.876;2.136;2023-12-22T10:05:33;101407.34;;;37.76;16.44
61086;BME280;46967;48.876;2.136;2023-12-22T10:08:00;101410.69;;;36.98;17.35
61086;BME280;46967;48.876;2.136;2023-12-22T10:10:27;101417.78;;;35.32;18.61
61086;BME280;46967;48.876;2.136;2023-12-22T10:12:54;101402.63;;;36.36;17.81
61086;BME280;46967;48.876;2.136;2023-12-22T10:15:21;101406.09;;;37.59;16.52
61086;BME280;46967;48.876;2.136;2023-12-22T10:17:50;101406.88;;;36.66;17.48
61086;BME280;46967;48.876;2.136;2023-12-22T10:20:15;101416.34;;;37.37;16.94
61086;BME280;46967;48.876;2.136;2023-12-22T10:22:41;101415.41;;;36.21;17.65
61086;BME280;46967;48.876;2.136;2023-12-22T10:25:07;101410.59;;;35.46;18.50
61086;BME280;46967;48.876;2.136;2023-12-22T10:27:35;101425.59;;;36.19;17.81
61086;BME280;46967;48.876;2.136;2023-12-22T10:30:01;101415.00;;;36.24;17.62
61086;BME280;46967;48.876;2.136;2023-12-22T10:32:28;101412.94;;;35.28;18.96
61086;BME280;46967;48.876;2.136;2023-12-22T10:34:53;101411.34;;;35.12;18.67
61086;BME280;46967;48.876;2.136;2023-12-22T10:37:19;101409.53;;;35.41;18.04
61086;BME280;46967;48.876;2.136;2023-12-22T10:39:46;101417.09;;;36.22;17.57
61086;BME280;46967;48.876;2.136;2023-12-22T10:42:14;101414.06;;;35.40;18.58
61086;BME280;46967;48.876;2.136;2023-12-22T10:44:40;101405.47;;;35.08;18.71
61086;BME280;46967;48.876;2.136;2023-12-22T10:47:06;101409.31;;;36.47;17.58
61086;BME280;46967;48.876;2.136;2023-12-22T10:49:32;101393.91;;;35.64;18.10
61086;BME280;46967;48.876;2.136;2023-12-22T10:51:59;101398.47;;;35.64;18.16
61086;BME280;46967;48.876;2.136;2023-12-22T10:54:24;101392.50;;;35.18;18.73
61086;BME280;46967;48.876;2.136;2023-12-22T10:56:49;101389.38;;;33.90;19.86
61086;BME280;46967;48.876;2.136;2023-12-22T10:59:19;101392.94;;;35.44;18.37
61086;BME280;46967;48.876;2.136;2023-12-22T11:01:48;101389.94;;;33.33;20.57
61086;BME280;46967;48.876;2.136;2023-12-22T11:04:17;101389.44;;;34.42;19.44
61086;BME280;46967;48.876;2.136;2023-12-22T11:06:47;101382.75;;;35.74;18.18
61086;BME280;46967;48.876;2.136;2023-12-22T11:09:16;101394.41;;;36.71;17.30
61086;BME280;46967;48.876;2.136;2023-12-22T11:11:42;101383.75;;;35.38;18.22
61086;BME280;46967;48.876;2.136;2023-12-22T11:14:08;101391.59;;;36.24;17.25
61086;BME280;46967;48.876;2.136;2023-12-22T11:16:35;101389.03;;;35.81;17.83
61086;BME280;46967;48.876;2.136;2023-12-22T11:19:02;101384.72;;;34.80;18.70
61086;BME280;46967;48.876;2.136;2023-12-22T11:21:28;101382.81;;;35.52;18.05
61086;BME280;46967;48.876;2.136;2023-12-22T11:23:54;101384.22;;;36.12;17.26
61086;BME280;46967;48.876;2.136;2023-12-22T11:26:22;101390.13;;;35.59;17.81
61086;BME280;46967;48.876;2.136;2023-12-22T11:28:49;101372.88;;;33.93;19.28
61086;BME280;46967;48.876;2.136;2023-12-22T11:31:16;101385.00;;;33.89;19.65
61086;BME280;46967;48.876;2.136;2023-12-22T11:33:49;101394.47;;;32.86;19.96
61086;BME280;46967;48.876;2.136;2023-12-22T11:36:16;101387.03;;;34.32;18.91
61086;BME280;46967;48.876;2.136;2023-12-22T11:38:44;101384.22;;;34.55;18.63
61086;BME280;46967;48.876;2.136;2023-12-22T11:41:12;101387.78;;;34.77;18.58
61086;BME280;46967;48.876;2.136;2023-12-22T11:43:39;101397.56;;;31.95;21.88
61086;BME280;46967;48.876;2.136;2023-12-22T11:46:05;101393.97;;;33.52;19.92
61086;BME280;46967;48.876;2.136;2023-12-22T11:48:30;101398.28;;;34.94;18.62
61086;BME280;46967;48.876;2.136;2023-12-22T11:50:56;101399.44;;;34.84;18.74
61086;BME280;46967;48.876;2.136;2023-12-22T11:53:23;101392.47;;;35.12;18.28
61086;BME280;46967;48.876;2.136;2023-12-22T11:55:58;101396.19;;;35.11;18.06
61086;BME280;46967;48.876;2.136;2023-12-22T11:58:43;101396.97;;;35.26;17.81
61086;BME280;46967;48.876;2.136;2023-12-22T12:01:17;101407.66;;;34.76;18.36
61086;BME280;46967;48.876;2.136;2023-12-22T12:08:58;101406.31;;;35.30;17.51
61086;BME280;46967;48.876;2.136;2023-12-22T12:14:32;101412.09;;;34.18;18.28
61086;BME280;46967;48.876;2.136;2023-12-22T12:17:08;101415.28;;;34.36;18.08
61086;BME280;46967;48.876;2.136;2023-12-22T12:19:35;101412.09;;;33.20;19.69
61086;BME280;46967;48.876;2.136;2023-12-22T12:22:02;101416.09;;;35.31;17.44
61086;BME280;46967;48.876;2.136;2023-12-22T12:24:28;101424.28;;;33.99;18.72
61086;BME280;46967;48.876;2.136;2023-12-22T12:26:53;101420.91;;;34.93;17.72
61086;BME280;46967;48.876;2.136;2023-12-22T12:29:20;101416.09;;;32.93;19.78
61086;BME280;46967;48.876;2.136;2023-12-22T12:31:45;101410.06;;;34.35;18.38
61086;BME280;46967;48.876;2.136;2023-12-22T12:34:10;101412.47;;;34.81;17.97
61086;BME280;46967;48.876;2.136;2023-12-22T12:36:37;101404.81;;;32.74;19.82
61086;BME280;46967;48.876;2.136;2023-12-22T12:39:07;101407.47;;;32.43;20.15
61086;BME280;46967;48.876;2.136;2023-12-22T12:41:36;101404.34;;;34.23;18.44
61086;BME280;46967;48.876;2.136;2023-12-22T12:44:06;101407.66;;;34.76;17.43
61086;BME280;46967;48.876;2.136;2023-12-22T12:46:35;101413.97;;;36.18;16.07
61086;BME280;46967;48.876;2.136;2023-12-22T12:49:09;101406.91;;;35.26;16.95
61086;BME280;46967;48.876;2.136;2023-12-22T12:51:42;101408.78;;;34.82;17.28
61086;BME280;46967;48.876;2.136;2023-12-22T12:54:08;101408.56;;;34.83;16.86
61086;BME280;46967;48.876;2.136;2023-12-22T12:56:42;101403.63;;;35.30;16.51
61086;BME280;46967;48.876;2.136;2023-12-22T12:59:12;101408.19;;;32.99;18.48
61086;BME280;46967;48.876;2.136;2023-12-22T13:01:39;101403.75;;;33.83;17.71